Terminal Aerodrome Forecast
Issued by NWS Los Angeles, CA

Home | Current Version | Previous Version | Text Only | Print | Product List | Glossary On
Versions: 1 2 3 4 5 6 7 8 9 10 11 12 13 14 15 16 17 18 19 20 21 22 23
000
FTUS46 KLOX 171100
TAFSMX
TAF
KSMX 171137Z 1712/1812 VRB03KT P6SM SKC
     FM171300 VRB03KT 3SM BR BKN003
     FM171700 30008KT 6SM BR SCT007
     FM172000 30015G25KT P6SM SCT100
     FM180300 30007KT 5SM BR OVC004
     FM180600 VRB03KT 3SM BR OVC002
     FM181000 VRB03KT 1/2SM FG VV001=

USA.gov is the U.S. government's official web portal to all federal, state and local government web resources and services.